Time;durP1;ratioP1;P1;durP2;ratioP2;P2;SDS_P1;SDS_P2;PMS_P1;PMS_P2;Temp;Humidity;BMP_temperature;BMP_pressure;BME280_temperature;BME280_humidity;BME280_pressure;Samples;Min_cycle;Max_cycle;Signal;HPM_P1;HPM_P2
2022/12/29 00:02:12;;;;;;;10.60;10.10;;;;;;;-1.18;100.00;101661.38;5012270;28;20105;-69
2022/12/29 00:04:37;;;;;;;11.05;10.45;;;;;;;-1.24;100.00;101664.31;5011954;28;20018;-69
2022/12/29 00:07:06;;;;;;;11.65;10.95;;;;;;;-1.23;100.00;101658.19;5012620;28;20034;-68
2022/12/29 00:09:32;;;;;;;10.88;10.30;;;;;;;-1.29;100.00;101650.66;5012651;28;20028;-68
2022/12/29 00:11:59;;;;;;;10.65;10.13;;;;;;;-1.39;100.00;101641.59;5011287;28;20025;-68
2022/12/29 00:17:08;;;;;;;11.25;10.65;;;;;;;-1.29;100.00;101637.63;5005472;28;20044;-68
2022/12/29 00:36:01;;;;;;;11.38;10.77;;;;;;;-1.43;100.00;101664.28;5012133;28;20028;-69
2022/12/29 00:44:05;;;;;;;10.45;9.93;;;;;;;-1.44;100.00;101649.59;5008499;28;20033;-68
2022/12/29 00:46:35;;;;;;;10.10;9.60;;;;;;;-1.41;100.00;101652.03;5010508;28;20034;-69
2022/12/29 00:51:46;;;;;;;10.80;10.20;;;;;;;-1.66;100.00;101646.28;5010986;28;20194;-68
2022/12/29 00:54:12;;;;;;;10.88;10.27;;;;;;;-1.77;100.00;101645.91;5011076;28;20073;-69
2022/12/29 00:56:38;;;;;;;10.95;10.35;;;;;;;-1.73;100.00;101644.88;5011905;28;20053;-68
2022/12/29 00:59:05;;;;;;;10.50;10.00;;;;;;;-1.58;100.00;101651.13;5010433;28;20025;-68
2022/12/29 01:01:31;;;;;;;10.82;10.27;;;;;;;-1.75;100.00;101638.91;5011910;28;20030;-68
2022/12/29 01:03:56;;;;;;;10.90;10.32;;;;;;;-1.80;100.00;101631.28;5011711;28;20041;-68
2022/12/29 01:06:23;;;;;;;10.48;9.98;;;;;;;-1.93;100.00;101624.94;5011914;28;20127;-68
2022/12/29 01:10:09;;;;;;;10.50;10.00;;;;;;;-1.82;100.00;101619.28;5009056;28;20030;-69
2022/12/29 01:11:33;;;;;;;10.85;10.25;;;;;;;-1.99;100.00;101622.59;5008599;28;20104;-68
2022/12/29 01:13:59;;;;;;;10.70;10.20;;;;;;;-1.82;100.00;101622.72;5011976;28;20474;-68
2022/12/29 01:16:24;;;;;;;10.25;9.75;;;;;;;-1.87;100.00;101622.06;5011846;28;20030;-68
2022/12/29 01:18:50;;;;;;;10.98;10.38;;;;;;;-1.81;100.00;101613.16;5011560;28;20179;-68
2022/12/29 01:21:15;;;;;;;10.32;9.82;;;;;;;-1.91;100.00;101620.50;5011525;28;20393;-68
2022/12/29 01:23:41;;;;;;;10.35;9.85;;;;;;;-1.81;100.00;101610.56;5010432;28;20080;-69
2022/12/29 01:26:10;;;;;;;10.75;10.15;;;;;;;-2.23;100.00;101609.75;5009673;28;20033;-69
2022/12/29 01:28:38;;;;;;;11.00;10.40;;;;;;;-2.28;100.00;101605.66;5010811;28;20022;-69
2022/12/29 01:31:04;;;;;;;11.00;10.40;;;;;;;-2.21;100.00;101620.09;5011617;28;20053;-68
2022/12/29 01:33:30;;;;;;;10.40;9.90;;;;;;;-2.15;100.00;101599.03;5011391;28;20446;-67
2022/12/29 01:36:00;;;;;;;10.57;10.07;;;;;;;-2.34;100.00;101601.59;5011706;28;20405;-68
2022/12/29 01:38:26;;;;;;;11.07;10.50;;;;;;;-2.28;100.00;101603.94;5011558;28;20104;-68
2022/12/29 01:40:51;;;;;;;10.85;10.25;;;;;;;-2.14;100.00;101598.13;5011213;28;20116;-68
2022/12/29 01:43:17;;;;;;;11.05;10.45;;;;;;;-2.12;100.00;101601.53;5011407;28;20470;-69
2022/12/29 01:45:50;;;;;;;11.07;10.48;;;;;;;-2.38;100.00;101607.81;5010657;28;20485;-68
2022/12/29 01:48:17;;;;;;;10.57;10.07;;;;;;;-2.41;100.00;101601.94;5009177;28;20489;-69
2022/12/29 01:50:50;;;;;;;10.75;10.20;;;;;;;-2.46;100.00;101596.06;5014155;28;20262;-67
2022/12/29 01:53:19;;;;;;;10.93;10.38;;;;;;;-2.43;100.00;101596.78;5014002;28;20045;-69
2022/12/29 01:55:53;;;;;;;10.68;10.18;;;;;;;-2.26;100.00;101586.53;5015048;28;20090;-68
2022/12/29 01:58:22;;;;;;;10.50;10.00;;;;;;;-2.58;100.00;101595.66;5015041;28;20033;-69
2022/12/29 02:00:48;;;;;;;11.15;10.55;;;;;;;-2.56;100.00;101588.69;5015369;28;20026;-68
2022/12/29 02:03:15;;;;;;;10.68;10.18;;;;;;;-2.54;100.00;101586.84;5013577;28;20737;-68
2022/12/29 02:05:56;;;;;;;11.95;11.30;;;;;;;-2.69;100.00;101600.47;5014802;28;20084;-68
2022/12/29 02:08:25;;;;;;;11.55;10.93;;;;;;;-2.64;100.00;101601.16;5010306;28;20436;-68
2022/12/29 02:10:51;;;;;;;10.88;10.35;;;;;;;-2.68;100.00;101588.34;5016183;28;20060;-68
2022/12/29 02:13:17;;;;;;;11.07;10.48;;;;;;;-2.80;100.00;101584.50;5016006;28;20105;-68
2022/12/29 02:16:00;;;;;;;11.05;10.45;;;;;;;-2.73;100.00;101585.91;5013795;28;20068;-70
2022/12/29 02:18:52;;;;;;;11.40;10.80;;;;;;;-2.71;100.00;101594.50;5014545;28;20576;-68
2022/12/29 02:21:23;;;;;;;11.82;11.13;;;;;;;-2.70;100.00;101590.16;5014214;28;20258;-68
2022/12/29 02:24:22;;;;;;;11.02;10.45;;;;;;;-2.61;100.00;101587.19;5016674;28;20527;-69
2022/12/29 02:27:15;;;;;;;11.00;10.43;;;;;;;-2.70;100.00;101597.97;5014355;28;20240;-69
2022/12/29 02:30:02;;;;;;;10.95;10.40;;;;;;;-2.60;100.00;101581.91;5014549;28;20048;-69
2022/12/29 02:32:59;;;;;;;11.38;10.77;;;;;;;-2.57;100.00;101588.72;5014398;28;20026;-69
2022/12/29 02:35:36;;;;;;;10.50;10.00;;;;;;;-2.81;100.00;101593.19;5014049;28;20448;-69
2022/12/29 02:38:20;;;;;;;11.20;10.60;;;;;;;-2.70;100.00;101583.22;5013689;28;20083;-69
2022/12/29 02:40:58;;;;;;;11.43;10.82;;;;;;;-2.54;100.00;101589.44;5012699;28;20129;-69
2022/12/29 02:43:35;;;;;;;10.52;10.02;;;;;;;-2.60;100.00;101584.50;5011819;28;20575;-69
2022/12/29 02:46:27;;;;;;;10.30;9.80;;;;;;;-2.65;100.00;101576.06;5013243;28;20100;-69
2022/12/29 02:49:02;;;;;;;11.23;10.63;;;;;;;-2.57;100.00;101566.22;5013028;28;20572;-69
2022/12/29 02:51:35;;;;;;;10.85;10.25;;;;;;;-2.66;100.00;101555.34;5012471;28;20025;-69
2022/12/29 02:56:45;;;;;;;11.00;10.43;;;;;;;-2.90;100.00;101567.59;5013073;28;20084;-67
2022/12/29 02:59:12;;;;;;;10.60;10.10;;;;;;;-2.97;100.00;101561.81;5013583;28;20030;-69
2022/12/29 03:02:18;;;;;;;11.07;10.48;;;;;;;-2.86;100.00;101564.00;5012115;28;20370;-68
2022/12/29 03:04:46;;;;;;;10.93;10.32;;;;;;;-3.00;100.00;101568.91;5013002;28;20437;-69
2022/12/29 03:07:30;;;;;;;10.95;10.35;;;;;;;-3.00;100.00;101561.13;5013859;28;20030;-69
2022/12/29 03:10:03;;;;;;;11.47;10.87;;;;;;;-2.99;100.00;101555.84;5011988;28;20400;-69
2022/12/29 03:16:04;;;;;;;11.35;10.75;;;;;;;-3.24;100.00;101565.53;5012963;28;20157;-70
2022/12/29 03:18:49;;;;;;;10.57;10.07;;;;;;;-3.21;100.00;101553.28;5012098;28;20034;-69
2022/12/29 03:22:26;;;;;;;10.52;10.02;;;;;;;-3.12;100.00;101563.28;5013813;28;20026;-69
2022/12/29 03:24:13;;;;;;;10.25;9.75;;;;;;;-3.10;100.00;101565.81;5013614;28;20033;-69
2022/12/29 03:26:42;;;;;;;11.52;10.93;;;;;;;-3.02;100.00;101566.34;5013733;28;20405;-69
2022/12/29 03:29:08;;;;;;;10.32;9.85;;;;;;;-3.08;100.00;101558.84;5013142;28;20083;-68
2022/12/29 03:31:37;;;;;;;10.60;10.10;;;;;;;-3.02;100.00;101544.75;5011880;28;20057;-70
2022/12/29 03:34:05;;;;;;;11.10;10.52;;;;;;;-3.11;100.00;101557.19;5013723;28;20025;-67
2022/12/29 03:36:42;;;;;;;10.88;10.38;;;;;;;-3.09;100.00;101554.53;5013441;28;20026;-68
2022/12/29 03:39:13;;;;;;;10.98;10.48;;;;;;;-3.19;100.00;101553.22;5013356;28;20029;-68
2022/12/29 03:41:42;;;;;;;10.90;10.40;;;;;;;-3.14;100.00;101549.53;5011192;28;20025;-68
2022/12/29 03:44:08;;;;;;;10.73;10.23;;;;;;;-3.16;100.00;101561.75;5012438;28;20030;-69
2022/12/29 03:46:34;;;;;;;10.70;10.18;;;;;;;-3.24;100.00;101548.19;5012895;28;20378;-68
2022/12/29 03:48:59;;;;;;;10.50;10.00;;;;;;;-3.16;100.00;101548.75;5013257;28;20037;-69
2022/12/29 03:51:25;;;;;;;10.90;10.35;;;;;;;-3.12;100.00;101545.13;5013474;28;20061;-68
2022/12/29 03:53:50;;;;;;;10.98;10.48;;;;;;;-3.12;100.00;101537.34;5011870;28;20034;-68
2022/12/29 03:56:16;;;;;;;10.95;10.43;;;;;;;-3.22;100.00;101535.19;5012825;28;20038;-69
2022/12/29 03:58:41;;;;;;;11.48;10.88;;;;;;;-3.25;100.00;101540.47;5013103;28;20037;-69
2022/12/29 04:01:07;;;;;;;10.68;10.18;;;;;;;-3.39;100.00;101548.81;5010985;28;20025;-68
2022/12/29 04:03:33;;;;;;;11.00;10.50;;;;;;;-3.21;100.00;101547.25;5012915;28;20034;-67
2022/12/29 04:05:58;;;;;;;10.85;10.35;;;;;;;-3.29;100.00;101539.78;5011277;28;20071;-70
2022/12/29 04:08:23;;;;;;;11.55;10.95;;;;;;;-3.42;100.00;101542.00;5013053;28;20474;-70
2022/12/29 04:10:49;;;;;;;11.50;10.90;;;;;;;-3.33;100.00;101533.84;5012680;28;20030;-68
2022/12/29 04:13:15;;;;;;;11.73;11.13;;;;;;;-3.39;100.00;101535.84;5011791;28;20040;-68
2022/12/29 04:15:43;;;;;;;11.75;11.07;;;;;;;-3.38;100.00;101533.22;5012495;28;20021;-69
2022/12/29 04:18:08;;;;;;;11.00;10.45;;;;;;;-3.39;100.00;101534.09;5011939;28;20397;-68
2022/12/29 04:23:17;;;;;;;11.15;10.57;;;;;;;-3.42;100.00;101533.38;5012451;28;20028;-68
2022/12/29 04:25:47;;;;;;;11.18;10.57;;;;;;;-3.35;100.00;101540.00;5012174;28;20029;-68
2022/12/29 04:28:13;;;;;;;11.15;10.57;;;;;;;-3.34;100.00;101539.09;5008118;28;20022;-70
2022/12/29 04:30:38;;;;;;;11.75;11.15;;;;;;;-3.27;100.00;101545.75;5012488;28;20080;-68
2022/12/29 04:33:04;;;;;;;11.50;10.90;;;;;;;-3.19;100.00;101542.84;5009666;28;20033;-70
2022/12/29 04:35:29;;;;;;;11.60;11.00;;;;;;;-3.16;100.00;101543.56;5011544;28;20045;-69
2022/12/29 04:37:54;;;;;;;11.00;10.40;;;;;;;-3.24;100.00;101549.94;5012225;28;20025;-68
2022/12/29 04:40:20;;;;;;;11.18;10.57;;;;;;;-3.25;100.00;101548.28;5012332;28;20474;-68
2022/12/29 04:42:45;;;;;;;11.75;11.07;;;;;;;-3.25;100.00;101551.72;5011370;28;20488;-69
2022/12/29 04:45:11;;;;;;;12.43;11.68;;;;;;;-3.35;100.00;101555.59;5012207;28;20022;-69
2022/12/29 04:47:36;;;;;;;11.57;10.98;;;;;;;-3.30;100.00;101548.47;5011987;28;20029;-68
2022/12/29 04:50:02;;;;;;;11.00;10.50;;;;;;;-3.17;100.00;101559.19;5010915;28;20018;-68
2022/12/29 04:52:28;;;;;;;10.88;10.38;;;;;;;-3.27;100.00;101556.13;5008904;28;20022;-68
2022/12/29 04:54:53;;;;;;;10.40;9.90;;;;;;;-3.40;100.00;101552.31;5012103;28;20026;-68
2022/12/29 04:57:18;;;;;;;10.82;10.32;;;;;;;-3.21;100.00;101555.88;5011938;28;20049;-68
2022/12/29 04:59:44;;;;;;;11.48;10.88;;;;;;;-3.33;100.00;101557.19;5012019;28;20079;-70
2022/12/29 05:02:10;;;;;;;11.07;10.57;;;;;;;-3.26;100.00;101562.16;5012011;28;20021;-69
2022/12/29 05:04:36;;;;;;;11.20;10.60;;;;;;;-3.21;100.00;101563.66;5011924;28;20033;-69
2022/12/29 05:07:01;;;;;;;10.82;10.32;;;;;;;-3.24;100.00;101563.78;5010357;28;20048;-68
2022/12/29 05:09:27;;;;;;;11.27;10.68;;;;;;;-3.19;100.00;101568.78;5026211;28;20052;-68
2022/12/29 05:11:52;;;;;;;11.00;10.40;;;;;;;-3.38;100.00;101568.66;5011219;28;20100;-69
2022/12/29 05:14:18;;;;;;;10.70;10.20;;;;;;;-3.12;100.00;101572.81;5011730;28;20072;-68
2022/12/29 05:16:43;;;;;;;10.93;10.32;;;;;;;-3.17;100.00;101569.56;5011606;28;20030;-68
2022/12/29 05:19:08;;;;;;;11.15;10.55;;;;;;;-3.28;100.00;101574.34;5010319;28;20025;-68
2022/12/29 05:21:34;;;;;;;10.75;10.25;;;;;;;-3.36;100.00;101575.50;5011793;28;20026;-67
2022/12/29 05:23:59;;;;;;;11.05;10.45;;;;;;;-3.47;100.00;101572.47;5011703;28;20520;-69
2022/12/29 05:26:25;;;;;;;11.55;10.95;;;;;;;-3.42;100.00;101580.06;5014818;28;20036;-69
2022/12/29 05:28:50;;;;;;;10.90;10.40;;;;;;;-3.44;100.00;101579.28;5015673;28;20048;-69
2022/12/29 05:31:16;;;;;;;10.80;10.30;;;;;;;-3.37;100.00;101573.81;5015702;28;20026;-68
2022/12/29 05:33:41;;;;;;;11.48;10.88;;;;;;;-3.45;100.00;101585.38;5015466;28;20022;-68
2022/12/29 05:36:08;;;;;;;11.75;11.15;;;;;;;-3.41;100.00;101579.16;5015814;28;20104;-68
2022/12/29 05:38:34;;;;;;;12.07;11.38;;;;;;;-3.42;100.00;101582.66;5014775;28;20041;-69
2022/12/29 05:41:00;;;;;;;11.55;10.95;;;;;;;-3.37;100.00;101579.00;5015352;28;20026;-70
2022/12/29 05:43:25;;;;;;;10.80;10.30;;;;;;;-3.30;100.00;101586.53;5014463;28;20092;-69
2022/12/29 05:45:52;;;;;;;11.40;10.80;;;;;;;-3.30;100.00;101582.19;5015357;28;20022;-69
2022/12/29 05:48:17;;;;;;;11.50;10.90;;;;;;;-3.29;100.00;101583.03;5012976;28;20038;-70
2022/12/29 05:50:47;;;;;;;10.75;10.23;;;;;;;-3.36;100.00;101580.69;5014784;28;20021;-69
2022/12/29 05:53:12;;;;;;;11.20;10.60;;;;;;;-3.32;100.00;101589.19;5013610;28;20437;-69
2022/12/29 05:55:38;;;;;;;10.38;9.88;;;;;;;-3.52;100.00;101584.78;5014911;28;20030;-68
2022/12/29 05:58:03;;;;;;;11.15;10.55;;;;;;;-3.40;100.00;101581.69;5014924;28;20026;-69
2022/12/29 06:00:29;;;;;;;10.65;10.13;;;;;;;-3.47;100.00;101587.19;5014321;28;20068;-69
2022/12/29 06:02:54;;;;;;;10.57;10.07;;;;;;;-3.51;100.00;101596.00;5013576;28;20029;-69
2022/12/29 06:05:20;;;;;;;10.80;10.27;;;;;;;-3.31;100.00;101590.84;5014763;28;20037;-70
2022/12/29 06:07:45;;;;;;;10.52;10.00;;;;;;;-3.14;100.00;101595.41;5014827;28;21770;-69
2022/12/29 06:10:10;;;;;;;10.80;10.20;;;;;;;-3.07;100.00;101591.66;5014877;28;20033;-69
2022/12/29 06:12:36;;;;;;;10.93;10.32;;;;;;;-2.64;100.00;101582.97;5014701;28;20037;-69
2022/12/29 06:15:02;;;;;;;10.05;9.55;;;;;;;-2.51;100.00;101591.06;5014968;28;20021;-69
2022/12/29 06:17:27;;;;;;;11.45;10.75;;;;;;;-2.60;100.00;101589.69;5013901;28;20385;-69
2022/12/29 06:19:52;;;;;;;9.50;9.10;;;;;;;-2.15;100.00;101588.63;5014858;28;20040;-69
2022/12/29 06:22:18;;;;;;;9.60;9.10;;;;;;;-1.83;100.00;101588.97;5014555;28;20028;-69
2022/12/29 06:24:43;;;;;;;8.88;8.48;;;;;;;-1.66;100.00;101589.06;5014062;28;20034;-69
2022/12/29 06:27:09;;;;;;;9.38;8.88;;;;;;;-1.82;100.00;101581.09;5014624;28;20025;-69
2022/12/29 06:29:36;;;;;;;9.68;9.18;;;;;;;-1.37;100.00;101579.03;5013184;28;20041;-70
2022/12/29 06:32:03;;;;;;;8.70;8.30;;;;;;;-1.00;100.00;101575.53;5014293;28;20030;-69
2022/12/29 06:34:29;;;;;;;10.05;9.45;;;;;;;-1.38;100.00;101574.75;5011690;28;20080;-70
2022/12/29 06:36:54;;;;;;;9.43;8.93;;;;;;;-1.83;100.00;101574.22;5013269;28;20500;-70
2022/12/29 06:39:20;;;;;;;9.35;8.85;;;;;;;-1.49;100.00;101567.44;5014077;28;20022;-69
2022/12/29 06:41:45;;;;;;;9.90;9.40;;;;;;;-1.26;100.00;101559.38;5014034;28;20033;-69
2022/12/29 06:44:11;;;;;;;10.35;9.77;;;;;;;0.79;100.00;101577.38;5013931;28;20053;-69
2022/12/29 06:46:36;;;;;;;10.20;9.65;;;;;;;0.48;100.00;101571.25;5014200;28;20034;-69
2022/12/29 06:49:02;;;;;;;9.30;8.85;;;;;;;1.41;100.00;101572.97;5014042;28;20030;-69
2022/12/29 06:51:27;;;;;;;9.25;8.82;;;;;;;4.69;100.00;101569.69;5013056;28;20029;-69
2022/12/29 06:53:53;;;;;;;10.05;9.55;;;;;;;2.07;100.00;101563.75;5013798;28;20477;-69
2022/12/29 06:56:18;;;;;;;9.65;9.15;;;;;;;4.12;100.00;101566.81;5012453;28;20449;-69
2022/12/29 06:58:44;;;;;;;9.48;8.98;;;;;;;6.55;100.00;101559.03;5013986;28;20492;-70
2022/12/29 07:01:09;;;;;;;9.35;8.90;;;;;;;6.64;100.00;101561.75;5013739;28;20058;-70
2022/12/29 07:03:35;;;;;;;10.02;9.52;;;;;;;4.02;100.00;101563.97;5011290;28;20037;-69
2022/12/29 07:06:00;;;;;;;9.88;9.38;;;;;;;6.24;100.00;101566.75;5013746;28;20393;-69
2022/12/29 07:08:26;;;;;;;8.98;8.57;;;;;;;7.63;100.00;101567.66;5013131;28;20491;-68
2022/12/29 07:10:51;;;;;;;9.75;9.25;;;;;;;4.39;100.00;101571.88;5013302;28;20033;-70
2022/12/29 07:13:17;;;;;;;10.35;9.85;;;;;;;7.82;100.00;101573.06;5013591;28;20104;-68
2022/12/29 07:15:42;;;;;;;9.60;9.20;;;;;;;7.73;100.00;101574.69;5011668;28;20021;-69
2022/12/29 07:18:08;;;;;;;9.80;9.30;;;;;;;9.60;100.00;101584.53;5013315;28;20022;-69
2022/12/29 07:20:33;;;;;;;9.90;9.43;;;;;;;4.89;100.00;101580.53;5013112;28;20046;-68
2022/12/29 07:22:59;;;;;;;10.02;9.52;;;;;;;4.48;100.00;101578.25;5013447;28;20028;-68
2022/12/29 07:25:24;;;;;;;10.57;10.07;;;;;;;5.57;100.00;101581.63;5011496;28;20105;-68
2022/12/29 07:27:50;;;;;;;10.27;9.77;;;;;;;8.39;100.00;101581.41;5013099;28;20121;-68
2022/12/29 07:30:15;;;;;;;9.90;9.43;;;;;;;8.46;100.00;101583.38;5013414;28;20033;-69
2022/12/29 07:32:41;;;;;;;9.95;9.45;;;;;;;6.97;100.00;101586.34;5012853;28;20030;-70
2022/12/29 07:35:07;;;;;;;9.80;9.38;;;;;;;4.77;100.00;101578.81;5012318;28;20101;-70
2022/12/29 07:37:34;;;;;;;10.30;9.80;;;;;;;6.22;100.00;101581.81;5013170;28;20025;-68
2022/12/29 07:40:01;;;;;;;10.15;9.65;;;;;;;5.22;100.00;101572.81;5011255;28;20068;-70
2022/12/29 07:42:26;;;;;;;9.77;9.38;;;;;;;7.75;100.00;101578.03;5011053;28;20053;-69
2022/12/29 07:44:52;;;;;;;9.80;9.40;;;;;;;7.74;100.00;101586.09;5013120;28;20072;-70
2022/12/29 07:47:17;;;;;;;9.52;9.13;;;;;;;10.06;100.00;101572.25;5012969;28;20026;-69
2022/12/29 07:49:43;;;;;;;9.50;9.10;;;;;;;9.75;95.66;101577.81;5013132;28;20496;-69
2022/12/29 07:52:08;;;;;;;10.23;9.73;;;;;;;10.40;92.19;101575.22;5013007;28;20441;-69
2022/12/29 07:54:34;;;;;;;10.40;9.90;;;;;;;9.40;97.88;101578.41;5012760;28;20030;-69
2022/12/29 07:57:00;;;;;;;9.93;9.52;;;;;;;10.85;87.26;101577.03;5012785;28;20058;-68
2022/12/29 07:59:25;;;;;;;9.85;9.45;;;;;;;11.56;85.35;101571.66;5012349;28;20061;-69
2022/12/29 08:01:51;;;;;;;10.30;9.80;;;;;;;11.63;76.99;101573.53;5011685;28;20057;-70
2022/12/29 08:04:16;;;;;;;10.75;10.25;;;;;;;12.92;72.46;101570.75;5011601;28;20068;-69
2022/12/29 08:06:42;;;;;;;10.90;10.40;;;;;;;12.53;68.19;101575.84;5011273;28;20465;-69
2022/12/29 08:09:08;;;;;;;10.88;10.38;;;;;;;13.35;68.05;101572.31;5012323;28;20092;-69
2022/12/29 08:11:33;;;;;;;10.25;9.77;;;;;;;13.70;64.21;101556.94;5012485;28;20026;-69
2022/12/29 08:13:59;;;;;;;10.60;10.10;;;;;;;13.40;64.88;101564.66;5012630;28;20444;-69
2022/12/29 08:16:24;;;;;;;10.40;9.90;;;;;;;10.68;78.64;101555.63;5011903;28;20109;-68
2022/12/29 08:18:50;;;;;;;10.68;10.18;;;;;;;5.73;100.00;101554.03;5012187;28;20026;-70
2022/12/29 08:21:15;;;;;;;10.65;10.15;;;;;;;9.30;97.16;101556.41;5012366;28;20516;-69
2022/12/29 08:23:41;;;;;;;11.00;10.50;;;;;;;10.72;90.14;101550.84;5011457;28;20037;-70
2022/12/29 08:26:06;;;;;;;10.23;9.77;;;;;;;11.39;81.21;101554.78;5011828;28;20038;-69
2022/12/29 08:28:32;;;;;;;10.65;10.15;;;;;;;10.53;92.12;101551.81;5010860;28;20125;-70
2022/12/29 08:31:00;;;;;;;10.70;10.20;;;;;;;9.48;90.14;101544.16;5012514;28;20129;-70
2022/12/29 08:33:26;;;;;;;10.52;10.02;;;;;;;9.17;84.02;101540.81;5011057;28;20065;-69
2022/12/29 08:35:52;;;;;;;11.18;10.68;;;;;;;9.28;100.00;101537.19;5011958;28;20029;-68
2022/12/29 08:38:18;;;;;;;11.02;10.52;;;;;;;5.92;100.00;101534.19;5009764;28;20037;-68
2022/12/29 08:40:44;;;;;;;11.35;10.85;;;;;;;8.80;100.00;101530.09;5010894;28;20021;-68
2022/12/29 08:43:09;;;;;;;10.80;10.30;;;;;;;8.68;100.00;101518.84;5012049;28;20025;-70
2022/12/29 08:45:35;;;;;;;10.57;10.07;;;;;;;10.00;94.76;101523.34;5011157;28;20113;-69
2022/12/29 08:48:01;;;;;;;10.68;10.18;;;;;;;11.45;95.05;101514.28;5012011;28;20034;-69
2022/12/29 08:50:26;;;;;;;10.43;9.93;;;;;;;9.71;89.34;101510.19;5011330;28;20026;-69
2022/12/29 08:52:52;;;;;;;9.80;9.40;;;;;;;10.85;90.18;101513.31;5011950;28;20611;-69
2022/12/29 08:55:17;;;;;;;9.90;9.50;;;;;;;11.63;79.04;101506.28;5012278;28;20056;-69
2022/12/29 08:57:42;;;;;;;10.60;10.10;;;;;;;11.05;79.35;101505.03;5011695;28;20037;-69
2022/12/29 09:00:09;;;;;;;10.88;10.38;;;;;;;12.56;71.85;101511.63;5011319;28;20058;-69
2022/12/29 09:02:34;;;;;;;11.07;10.57;;;;;;;12.78;69.37;101516.34;5011601;28;20038;-69
2022/12/29 09:05:00;;;;;;;10.63;10.13;;;;;;;13.85;62.03;101509.91;5011807;28;20021;-69
2022/12/29 09:07:26;;;;;;;10.50;10.00;;;;;;;13.42;62.32;101503.19;5011139;28;20034;-70
2022/12/29 09:09:51;;;;;;;10.60;10.10;;;;;;;10.57;68.84;101502.78;5011475;28;20026;-68
2022/12/29 09:12:17;;;;;;;10.38;9.88;;;;;;;13.49;73.02;101493.50;5011489;28;20469;-70
2022/12/29 09:14:44;;;;;;;10.80;10.30;;;;;;;12.21;77.34;101494.94;5011542;28;20440;-69
2022/12/29 09:19:53;;;;;;;11.05;10.55;;;;;;;8.54;96.54;101490.13;5010083;28;20028;-70
2022/12/29 09:22:19;;;;;;;10.45;9.95;;;;;;;11.43;81.38;101472.94;5011470;28;20029;-70
2022/12/29 09:24:44;;;;;;;11.13;10.63;;;;;;;12.11;80.86;101486.22;5010621;28;20022;-70
2022/12/29 09:27:10;;;;;;;10.40;9.90;;;;;;;8.76;88.25;101491.69;5010241;28;20117;-69
2022/12/29 09:29:35;;;;;;;11.02;10.52;;;;;;;5.71;100.00;101476.94;5011508;28;20038;-69
2022/12/29 09:32:01;;;;;;;10.50;10.00;;;;;;;6.41;100.00;101475.81;5008704;28;20053;-69
2022/12/29 09:34:27;;;;;;;10.50;10.00;;;;;;;7.36;100.00;101479.28;5010677;28;20042;-69
2022/12/29 09:36:52;;;;;;;10.50;10.00;;;;;;;6.56;100.00;101477.19;5011298;28;20036;-70
2022/12/29 09:39:18;;;;;;;11.18;10.68;;;;;;;4.36;100.00;101477.56;5011497;28;20373;-70
2022/12/29 09:41:53;;;;;;;11.73;11.13;;;;;;;4.51;100.00;101470.34;5010531;28;20470;-69
2022/12/29 09:44:53;;;;;;;11.00;10.50;;;;;;;4.62;100.00;101483.50;5009129;28;20469;-70
2022/12/29 09:47:21;;;;;;;10.93;10.43;;;;;;;5.32;100.00;101465.09;4979265;28;20049;-70
2022/12/29 09:49:52;;;;;;;11.30;10.70;;;;;;;5.62;100.00;101461.88;5010046;28;20072;-69
2022/12/29 09:52:29;;;;;;;10.80;10.30;;;;;;;5.64;100.00;101459.94;5009299;28;20033;-69
2022/12/29 09:55:03;;;;;;;10.70;10.20;;;;;;;6.13;100.00;101469.28;5011191;28;20018;-69
2022/12/29 09:57:42;;;;;;;10.93;10.43;;;;;;;5.46;100.00;101464.03;5011181;28;20053;-69
2022/12/29 10:00:18;;;;;;;10.63;10.13;;;;;;;5.83;100.00;101454.91;5010035;28;20026;-69
2022/12/29 10:02:50;;;;;;;11.70;11.05;;;;;;;3.99;100.00;101451.31;5009222;28;20037;-69
2022/12/29 10:05:24;;;;;;;11.07;10.48;;;;;;;5.68;100.00;101452.66;5009895;28;20041;-69
2022/12/29 10:08:03;;;;;;;10.52;10.02;;;;;;;5.42;100.00;101449.41;5011136;28;20037;-70
2022/12/29 10:10:56;;;;;;;10.73;10.23;;;;;;;5.89;100.00;101448.34;5010385;28;20459;-69
2022/12/29 10:13:55;;;;;;;10.18;9.68;;;;;;;5.28;100.00;101438.16;5012207;28;20041;-70
2022/12/29 10:16:28;;;;;;;10.55;10.05;;;;;;;5.22;100.00;101433.41;5013105;28;20022;-70
2022/12/29 10:19:15;;;;;;;10.13;9.63;;;;;;;5.21;100.00;101433.50;5014764;28;20104;-70
2022/12/29 10:22:04;;;;;;;10.23;9.73;;;;;;;5.00;100.00;101436.00;5010309;28;20030;-70
2022/12/29 10:24:32;;;;;;;10.00;9.50;;;;;;;5.43;100.00;101432.66;5027796;28;20439;-69
2022/12/29 10:26:59;;;;;;;10.93;10.32;;;;;;;5.36;100.00;101415.69;5014468;28;20382;-70
2022/12/29 10:29:33;;;;;;;10.15;9.65;;;;;;;5.53;100.00;101416.06;5012708;28;20065;-70
2022/12/29 10:32:09;;;;;;;;;;;;;;;5.75;100.00;101431.00;5013893;28;20021;-70
2022/12/29 10:34:39;;;;;;;11.98;11.27;;;;;;;5.27;100.00;101415.44;5014308;28;19914;-68
2022/12/29 10:37:17;;;;;;;10.23;9.73;;;;;;;5.67;100.00;101420.25;5014168;28;20124;-69
2022/12/29 10:39:50;;;;;;;11.48;10.88;;;;;;;5.63;100.00;101413.53;5014208;28;20029;-68
2022/12/29 10:42:37;;;;;;;10.77;10.18;;;;;;;5.64;100.00;101406.47;5012186;28;20029;-69
2022/12/29 10:45:04;;;;;;;11.23;10.63;;;;;;;5.50;100.00;101403.13;5010630;28;20037;-69
2022/12/29 10:47:34;;;;;;;10.45;9.95;;;;;;;5.32;100.00;101403.75;5013843;28;20029;-69
2022/12/29 10:50:02;;;;;;;10.65;10.10;;;;;;;5.38;100.00;101401.47;5013414;28;20029;-69
2022/12/29 10:52:30;;;;;;;10.10;9.60;;;;;;;5.30;100.00;101400.41;5013693;28;20033;-69
2022/12/29 10:54:59;;;;;;;10.57;10.07;;;;;;;5.60;100.00;101387.47;5013868;28;20057;-69
2022/12/29 10:57:31;;;;;;;11.13;10.52;;;;;;;5.42;100.00;101388.91;5013705;28;20046;-70
2022/12/29 10:59:57;;;;;;;10.60;10.05;;;;;;;4.84;100.00;101383.69;5009333;28;20030;-69
2022/12/29 11:02:48;;;;;;;9.80;9.32;;;;;;;4.93;100.00;101387.44;5013805;28;20052;-70
2022/12/29 11:05:36;;;;;;;10.05;9.55;;;;;;;4.82;100.00;101382.16;5012000;28;20030;-69
2022/12/29 11:08:08;;;;;;;9.85;9.35;;;;;;;4.67;100.00;101385.00;5011562;28;20159;-70
2022/12/29 11:10:39;;;;;;;9.85;9.38;;;;;;;5.03;100.00;101387.56;5013650;28;20030;-70
2022/12/29 11:13:24;;;;;;;10.27;9.77;;;;;;;5.32;100.00;101375.63;5013807;28;20100;-70
2022/12/29 11:15:51;;;;;;;10.48;9.98;;;;;;;5.31;100.00;101383.66;5013607;28;20014;-70
2022/12/29 11:18:31;;;;;;;11.25;10.65;;;;;;;5.69;100.00;101392.00;5013619;28;20053;-70
2022/12/29 11:21:02;;;;;;;10.35;9.85;;;;;;;4.89;100.00;101392.09;5013614;28;20025;-70
2022/12/29 11:23:37;;;;;;;11.07;10.48;;;;;;;4.65;100.00;101392.16;5011935;28;20030;-70
2022/12/29 11:26:22;;;;;;;10.15;9.65;;;;;;;5.06;100.00;101384.69;5008996;28;20034;-68
2022/12/29 11:29:03;;;;;;;;;;;;;;;5.20;100.00;101385.31;5013958;28;20362;-69
2022/12/29 11:31:29;;;;;;;9.90;9.40;;;;;;;5.19;100.00;101378.38;5013065;28;19936;-68
2022/12/29 11:33:55;;;;;;;10.32;9.82;;;;;;;5.26;100.00;101370.84;5013253;28;20029;-70
2022/12/29 11:36:23;;;;;;;10.10;9.60;;;;;;;5.60;100.00;101357.69;5013273;28;20536;-69
2022/12/29 11:38:52;;;;;;;10.95;10.35;;;;;;;5.58;100.00;101367.47;5013112;28;20041;-68
2022/12/29 11:41:26;;;;;;;10.52;9.98;;;;;;;6.14;100.00;101370.00;5007557;28;20120;-69
2022/12/29 11:43:55;;;;;;;9.32;8.93;;;;;;;5.71;100.00;101363.75;5013117;28;20049;-70
2022/12/29 11:46:34;;;;;;;9.93;9.43;;;;;;;6.02;100.00;101363.94;5011413;28;20057;-70
2022/12/29 11:49:00;;;;;;;9.60;9.13;;;;;;;6.08;100.00;101358.16;5010787;28;20061;-69
2022/12/29 11:51:34;;;;;;;10.73;10.13;;;;;;;6.19;100.00;101367.84;5013001;28;20025;-69
2022/12/29 11:54:03;;;;;;;9.80;9.30;;;;;;;6.21;100.00;101364.09;5011864;28;20049;-69
2022/12/29 11:56:36;;;;;;;10.05;9.55;;;;;;;6.41;100.00;101359.84;5012725;28;20068;-69
2022/12/29 11:59:31;;;;;;;10.07;9.57;;;;;;;6.49;100.00;101343.38;5011853;28;20030;-69